Accueil
METAR-TAF:

METAR-TAF

Aéroports :

Asunción, Paraguay

Aéroport international Silvio Pettirossi

latitude: 25-16S, longitude: 057-38W, altitude: 101 m

Observation

Le bulletin a été fait il y a 17 minutes, à 20:00 UTC
Vent 8 kt de sud/sud-est, variant entre est/sud-est et sud
Température 30°C
Humidité 55%
Pression 1005 hPa
Visibilité 10 km ou plus
Nuages fragmentés à une hauteur de 3300 ft

METAR: SGAS 042000Z 16008KT 120V190 9999 BKN033 30/20 Q1005

Heure: 17:17 (20:17 UTC)

Prévision

Le bulletin a été fait il y a 10 heures et 27 minutes, à 09:50 UTC
Prévision valable du 04 à 12 UTC au 05 à 12 UTC
Vent kt de nord
Visibilité 10 km ou plus
pas de nuages en-dessous de 1500 mètres et pas de cumulonimbus.
Evoluant progressivement
du 04 à 15 UTC au 04 à 18 UTC
Vent 8 kt de sud-est
Visibilité 10 km ou plus
Nuages épars à une hauteur de 2700 ft

TAF: SGAS 040950Z 0412/0512 00000KT CAVOK TX34/0418Z TN21/0509Z BECMG 0415/0418 13008KT 9999 SCT027

Observations et prévisions météorologiques de plus de 4000 aéroports (messages METAR et TAF).

Les stations disponibles sont représentées par des disques jaunes et rouges sur la carte.

Passer la souris dessus pour voir le nom de la station.

Cliquer dessus pour voir les observations et prévisions météorologiques.

Pour changer de carte: cliquez sur les boutons verts avec une croix noire pour zoomer, sur le bouton vert avec un tiret pour effectuer un zoom arrière, ou sur les flèches vertes pour les cartes adjacentes.


METAR-TAF: